sensor_id;sensor_type;location;lat;lon;timestamp;pressure;altitude;pressure_sealevel;temperature;humidity
64698;BME280;51124;53.394;-6.294;2024-02-04T00:00:28;101786.46;;;17.32;12.58
64698;BME280;51124;53.394;-6.294;2024-02-04T00:02:56;101786.78;;;18.29;12.49
64698;BME280;51124;53.394;-6.294;2024-02-04T00:05:24;101786.14;;;18.67;13.14
64698;BME280;51124;53.394;-6.294;2024-02-04T00:07:52;101789.98;;;18.84;13.11
64698;BME280;51124;53.394;-6.294;2024-02-04T00:10:19;101789.72;;;18.81;12.95
64698;BME280;51124;53.394;-6.294;2024-02-04T00:12:46;101784.83;;;18.79;12.95
64698;BME280;51124;53.394;-6.294;2024-02-04T00:15:14;101781.52;;;19.05;12.86
64698;BME280;51124;53.394;-6.294;2024-02-04T00:17:42;101779.22;;;18.59;12.69
64698;BME280;51124;53.394;-6.294;2024-02-04T00:20:10;101782.20;;;17.08;12.67
64698;BME280;51124;53.394;-6.294;2024-02-04T00:22:37;101775.47;;;16.82;12.34
64698;BME280;51124;53.394;-6.294;2024-02-04T00:25:05;101767.11;;;16.10;11.98
64698;BME280;51124;53.394;-6.294;2024-02-04T00:27:33;101770.34;;;16.16;11.68
64698;BME280;51124;53.394;-6.294;2024-02-04T00:30:00;101766.39;;;17.05;11.35
64698;BME280;51124;53.394;-6.294;2024-02-04T00:32:27;101766.56;;;16.65;11.28
64698;BME280;51124;53.394;-6.294;2024-02-04T00:34:55;101761.33;;;15.91;11.11
64698;BME280;51124;53.394;-6.294;2024-02-04T00:37:23;101764.49;;;16.27;10.82
64698;BME280;51124;53.394;-6.294;2024-02-04T00:39:50;101762.90;;;16.19;10.58
64698;BME280;51124;53.394;-6.294;2024-02-04T00:42:17;101771.05;;;16.59;10.58
64698;BME280;51124;53.394;-6.294;2024-02-04T00:44:45;101773.36;;;16.34;10.44
64698;BME280;51124;53.394;-6.294;2024-02-04T00:47:12;101768.01;;;16.67;10.33
64698;BME280;51124;53.394;-6.294;2024-02-04T00:49:39;101772.15;;;16.48;10.36
64698;BME280;51124;53.394;-6.294;2024-02-04T00:52:07;101768.63;;;16.35;10.32
64698;BME280;51124;53.394;-6.294;2024-02-04T00:54:34;101765.06;;;16.83;10.25
64698;BME280;51124;53.394;-6.294;2024-02-04T00:57:02;101760.80;;;16.12;10.22
64698;BME280;51124;53.394;-6.294;2024-02-04T00:59:29;101765.52;;;16.41;10.07
64698;BME280;51124;53.394;-6.294;2024-02-04T01:01:57;101768.99;;;16.20;10.07
64698;BME280;51124;53.394;-6.294;2024-02-04T01:04:24;101769.93;;;16.09;10.05
64698;BME280;51124;53.394;-6.294;2024-02-04T01:06:51;101761.36;;;15.75;9.98
64698;BME280;51124;53.394;-6.294;2024-02-04T01:09:19;101749.82;;;16.57;9.85
64698;BME280;51124;53.394;-6.294;2024-02-04T01:11:46;101752.47;;;15.68;9.90
64698;BME280;51124;53.394;-6.294;2024-02-04T01:14:13;101744.36;;;16.80;9.77
64698;BME280;51124;53.394;-6.294;2024-02-04T01:16:41;101745.74;;;15.95;9.85
64698;BME280;51124;53.394;-6.294;2024-02-04T01:19:08;101754.25;;;16.35;9.77
64698;BME280;51124;53.394;-6.294;2024-02-04T01:21:36;101756.12;;;15.83;9.79
64698;BME280;51124;53.394;-6.294;2024-02-04T01:24:03;101750.97;;;16.12;9.73
64698;BME280;51124;53.394;-6.294;2024-02-04T01:26:31;101753.14;;;16.28;9.74
64698;BME280;51124;53.394;-6.294;2024-02-04T01:28:58;101743.64;;;16.10;9.82
64698;BME280;51124;53.394;-6.294;2024-02-04T01:31:25;101730.05;;;16.07;9.77
64698;BME280;51124;53.394;-6.294;2024-02-04T01:33:53;101733.41;;;15.81;9.74
64698;BME280;51124;53.394;-6.294;2024-02-04T01:36:20;101731.41;;;16.39;9.67
64698;BME280;51124;53.394;-6.294;2024-02-04T01:38:47;101729.44;;;16.92;9.68
64698;BME280;51124;53.394;-6.294;2024-02-04T01:41:15;101721.38;;;16.02;9.72
64698;BME280;51124;53.394;-6.294;2024-02-04T01:43:42;101723.90;;;16.45;9.67
64698;BME280;51124;53.394;-6.294;2024-02-04T01:46:09;101714.69;;;15.96;9.67
64698;BME280;51124;53.394;-6.294;2024-02-04T01:48:38;101716.36;;;16.86;9.69
64698;BME280;51124;53.394;-6.294;2024-02-04T01:51:07;101718.26;;;16.02;9.67
64698;BME280;51124;53.394;-6.294;2024-02-04T01:53:34;101711.72;;;16.13;9.61
64698;BME280;51124;53.394;-6.294;2024-02-04T01:56:04;101716.56;;;16.74;9.72
64698;BME280;51124;53.394;-6.294;2024-02-04T01:58:32;101705.15;;;16.27;9.84
64698;BME280;51124;53.394;-6.294;2024-02-04T02:01:00;101704.00;;;16.55;9.84
64698;BME280;51124;53.394;-6.294;2024-02-04T02:03:28;101699.05;;;15.57;9.79
64698;BME280;51124;53.394;-6.294;2024-02-04T02:05:58;101698.95;;;16.06;9.78
64698;BME280;51124;53.394;-6.294;2024-02-04T02:08:26;101693.54;;;16.24;9.72
64698;BME280;51124;53.394;-6.294;2024-02-04T02:11:01;101685.47;;;15.92;9.78
64698;BME280;51124;53.394;-6.294;2024-02-04T02:13:25;101678.80;;;17.00;9.72
64698;BME280;51124;53.394;-6.294;2024-02-04T02:15:58;101678.96;;;15.62;9.77
64698;BME280;51124;53.394;-6.294;2024-02-04T02:18:32;101678.94;;;16.09;9.52
64698;BME280;51124;53.394;-6.294;2024-02-04T02:21:16;101671.01;;;15.55;9.63
64698;BME280;51124;53.394;-6.294;2024-02-04T02:23:40;101677.11;;;15.95;9.54
64698;BME280;51124;53.394;-6.294;2024-02-04T02:26:10;101678.31;;;16.21;9.56
64698;BME280;51124;53.394;-6.294;2024-02-04T02:28:38;101673.24;;;18.55;9.85
64698;BME280;51124;53.394;-6.294;2024-02-04T02:31:05;101678.08;;;18.55;10.31
64698;BME280;51124;53.394;-6.294;2024-02-04T02:33:33;101668.79;;;18.00;10.46
64698;BME280;51124;53.394;-6.294;2024-02-04T02:36:02;101668.38;;;17.12;10.45
64698;BME280;51124;53.394;-6.294;2024-02-04T02:38:41;101669.89;;;18.71;10.57
64698;BME280;51124;53.394;-6.294;2024-02-04T02:41:03;101666.64;;;18.88;10.90
64698;BME280;51124;53.394;-6.294;2024-02-04T02:43:31;101669.83;;;18.30;11.29
64698;BME280;51124;53.394;-6.294;2024-02-04T02:45:59;101664.32;;;18.51;11.50
64698;BME280;51124;53.394;-6.294;2024-02-04T02:48:27;101668.74;;;18.76;11.48
64698;BME280;51124;53.394;-6.294;2024-02-04T02:50:55;101669.54;;;18.50;11.76
64698;BME280;51124;53.394;-6.294;2024-02-04T02:53:23;101671.56;;;18.85;11.64
64698;BME280;51124;53.394;-6.294;2024-02-04T02:55:51;101677.07;;;18.32;11.76
64698;BME280;51124;53.394;-6.294;2024-02-04T02:58:18;101669.61;;;18.20;11.73
64698;BME280;51124;53.394;-6.294;2024-02-04T03:00:46;101667.86;;;18.17;11.85
64698;BME280;51124;53.394;-6.294;2024-02-04T03:03:14;101651.68;;;18.49;11.80
64698;BME280;51124;53.394;-6.294;2024-02-04T03:05:41;101662.69;;;18.14;11.82
64698;BME280;51124;53.394;-6.294;2024-02-04T03:08:08;101657.64;;;18.74;11.81
64698;BME280;51124;53.394;-6.294;2024-02-04T03:10:36;101654.80;;;18.25;11.92
64698;BME280;51124;53.394;-6.294;2024-02-04T03:13:04;101655.57;;;18.61;11.81
64698;BME280;51124;53.394;-6.294;2024-02-04T03:15:31;101653.01;;;19.00;11.80
64698;BME280;51124;53.394;-6.294;2024-02-04T03:17:59;101654.57;;;17.71;11.93
64698;BME280;51124;53.394;-6.294;2024-02-04T03:20:26;101659.97;;;18.15;11.87
64698;BME280;51124;53.394;-6.294;2024-02-04T03:22:54;101650.27;;;18.14;11.96
64698;BME280;51124;53.394;-6.294;2024-02-04T03:25:22;101644.59;;;18.23;11.90
64698;BME280;51124;53.394;-6.294;2024-02-04T03:27:50;101635.97;;;18.03;11.93
64698;BME280;51124;53.394;-6.294;2024-02-04T03:30:17;101629.06;;;16.63;11.67
64698;BME280;51124;53.394;-6.294;2024-02-04T03:32:45;101629.78;;;16.46;11.44
64698;BME280;51124;53.394;-6.294;2024-02-04T03:35:12;101622.81;;;16.05;11.05
64698;BME280;51124;53.394;-6.294;2024-02-04T03:37:40;101618.62;;;17.03;10.72
64698;BME280;51124;53.394;-6.294;2024-02-04T03:40:08;101625.79;;;17.18;10.63
64698;BME280;51124;53.394;-6.294;2024-02-04T03:42:36;101623.09;;;16.27;10.67
64698;BME280;51124;53.394;-6.294;2024-02-04T03:45:04;101617.00;;;15.98;10.46
64698;BME280;51124;53.394;-6.294;2024-02-04T03:47:31;101609.05;;;15.89;10.27
64698;BME280;51124;53.394;-6.294;2024-02-04T03:49:59;101608.76;;;15.81;10.18
64698;BME280;51124;53.394;-6.294;2024-02-04T03:52:26;101600.10;;;15.98;9.98
64698;BME280;51124;53.394;-6.294;2024-02-04T03:54:53;101591.38;;;16.26;9.90
64698;BME280;51124;53.394;-6.294;2024-02-04T03:57:21;101582.61;;;16.66;9.87
64698;BME280;51124;53.394;-6.294;2024-02-04T03:59:48;101586.66;;;16.01;9.90
64698;BME280;51124;53.394;-6.294;2024-02-04T04:02:15;101586.51;;;15.45;9.78
64698;BME280;51124;53.394;-6.294;2024-02-04T04:04:43;101583.45;;;15.95;9.83
64698;BME280;51124;53.394;-6.294;2024-02-04T04:07:10;101586.07;;;16.07;9.65
64698;BME280;51124;53.394;-6.294;2024-02-04T04:09:38;101578.94;;;16.34;9.63
64698;BME280;51124;53.394;-6.294;2024-02-04T04:12:05;101571.83;;;15.99;9.60
64698;BME280;51124;53.394;-6.294;2024-02-04T04:14:33;101572.54;;;16.67;9.45
64698;BME280;51124;53.394;-6.294;2024-02-04T04:17:00;101563.17;;;16.26;9.47
64698;BME280;51124;53.394;-6.294;2024-02-04T04:19:28;101568.09;;;16.07;9.37
64698;BME280;51124;53.394;-6.294;2024-02-04T04:21:55;101564.44;;;15.75;9.51
64698;BME280;51124;53.394;-6.294;2024-02-04T04:24:23;101561.69;;;16.32;9.42
64698;BME280;51124;53.394;-6.294;2024-02-04T04:26:50;101568.92;;;16.76;9.43
64698;BME280;51124;53.394;-6.294;2024-02-04T04:29:18;101556.52;;;15.58;9.57
64698;BME280;51124;53.394;-6.294;2024-02-04T04:31:45;101558.04;;;16.31;9.46
64698;BME280;51124;53.394;-6.294;2024-02-04T04:34:12;101557.80;;;15.74;9.50
64698;BME280;51124;53.394;-6.294;2024-02-04T04:36:40;101560.08;;;16.25;9.44
64698;BME280;51124;53.394;-6.294;2024-02-04T04:39:07;101564.82;;;15.67;9.48
64698;BME280;51124;53.394;-6.294;2024-02-04T04:41:34;101554.80;;;16.33;9.44
64698;BME280;51124;53.394;-6.294;2024-02-04T04:44:03;101560.50;;;16.35;9.34
64698;BME280;51124;53.394;-6.294;2024-02-04T04:46:30;101558.86;;;16.43;9.33
64698;BME280;51124;53.394;-6.294;2024-02-04T04:48:57;101555.24;;;16.00;9.40
64698;BME280;51124;53.394;-6.294;2024-02-04T04:51:25;101554.69;;;15.65;9.34
64698;BME280;51124;53.394;-6.294;2024-02-04T04:53:52;101552.83;;;16.09;9.37
64698;BME280;51124;53.394;-6.294;2024-02-04T04:56:19;101552.11;;;15.92;9.36
64698;BME280;51124;53.394;-6.294;2024-02-04T04:58:47;101551.77;;;16.17;9.37
64698;BME280;51124;53.394;-6.294;2024-02-04T05:01:14;101543.61;;;15.68;9.43
64698;BME280;51124;53.394;-6.294;2024-02-04T05:03:42;101545.33;;;15.74;9.40
64698;BME280;51124;53.394;-6.294;2024-02-04T05:06:09;101540.39;;;17.60;9.31
64698;BME280;51124;53.394;-6.294;2024-02-04T05:08:37;101528.92;;;15.99;9.49
64698;BME280;51124;53.394;-6.294;2024-02-04T05:11:04;101527.04;;;15.81;9.42
64698;BME280;51124;53.394;-6.294;2024-02-04T05:13:31;101518.61;;;16.10;9.47
64698;BME280;51124;53.394;-6.294;2024-02-04T05:15:59;101514.50;;;15.86;9.34
64698;BME280;51124;53.394;-6.294;2024-02-04T05:18:26;101513.39;;;16.30;9.44
64698;BME280;51124;53.394;-6.294;2024-02-04T05:20:53;101524.74;;;16.12;9.47
64698;BME280;51124;53.394;-6.294;2024-02-04T05:23:21;101522.12;;;15.56;9.48
64698;BME280;51124;53.394;-6.294;2024-02-04T05:25:48;101519.94;;;15.78;9.40
64698;BME280;51124;53.394;-6.294;2024-02-04T05:28:16;101515.42;;;16.49;9.29
64698;BME280;51124;53.394;-6.294;2024-02-04T05:30:43;101518.29;;;16.37;9.27
64698;BME280;51124;53.394;-6.294;2024-02-04T05:33:13;101527.51;;;16.00;9.24
64698;BME280;51124;53.394;-6.294;2024-02-04T05:35:41;101525.88;;;18.39;9.31
64698;BME280;51124;53.394;-6.294;2024-02-04T05:38:08;101529.22;;;18.16;9.85
64698;BME280;51124;53.394;-6.294;2024-02-04T05:40:36;101528.92;;;18.28;10.10
64698;BME280;51124;53.394;-6.294;2024-02-04T05:43:03;101529.65;;;16.95;10.27
64698;BME280;51124;53.394;-6.294;2024-02-04T05:45:31;101531.01;;;16.83;10.18
64698;BME280;51124;53.394;-6.294;2024-02-04T05:47:58;101529.20;;;19.31;10.46
64698;BME280;51124;53.394;-6.294;2024-02-04T05:50:26;101520.70;;;18.91;10.84
64698;BME280;51124;53.394;-6.294;2024-02-04T05:52:53;101520.51;;;19.10;11.09
64698;BME280;51124;53.394;-6.294;2024-02-04T05:55:21;101520.89;;;19.03;11.20
64698;BME280;51124;53.394;-6.294;2024-02-04T05:57:48;101512.36;;;18.39;11.38
64698;BME280;51124;53.394;-6.294;2024-02-04T06:00:17;101508.92;;;18.49;11.45
64698;BME280;51124;53.394;-6.294;2024-02-04T06:02:44;101503.84;;;18.95;11.39
64698;BME280;51124;53.394;-6.294;2024-02-04T06:05:13;101499.10;;;18.37;11.49
64698;BME280;51124;53.394;-6.294;2024-02-04T06:07:42;101501.85;;;18.38;11.58
64698;BME280;51124;53.394;-6.294;2024-02-04T06:10:11;101491.45;;;18.44;11.56
64698;BME280;51124;53.394;-6.294;2024-02-04T06:12:38;101489.25;;;18.49;11.54
64698;BME280;51124;53.394;-6.294;2024-02-04T06:15:11;101487.84;;;18.59;11.63
64698;BME280;51124;53.394;-6.294;2024-02-04T06:17:39;101471.66;;;18.05;11.54
64698;BME280;51124;53.394;-6.294;2024-02-04T06:20:07;101465.06;;;17.66;11.77
64698;BME280;51124;53.394;-6.294;2024-02-04T06:22:36;101448.13;;;18.79;11.64
64698;BME280;51124;53.394;-6.294;2024-02-04T06:25:04;101450.51;;;18.82;11.63
64698;BME280;51124;53.394;-6.294;2024-02-04T06:27:31;101446.65;;;18.60;11.74
64698;BME280;51124;53.394;-6.294;2024-02-04T06:29:59;101450.26;;;18.20;11.62
64698;BME280;51124;53.394;-6.294;2024-02-04T06:32:27;101462.81;;;18.33;11.59
64698;BME280;51124;53.394;-6.294;2024-02-04T06:34:54;101459.73;;;18.23;11.72
64698;BME280;51124;53.394;-6.294;2024-02-04T06:37:22;101457.95;;;17.23;11.60
64698;BME280;51124;53.394;-6.294;2024-02-04T06:39:49;101451.30;;;15.69;11.29
64698;BME280;51124;53.394;-6.294;2024-02-04T06:42:17;101439.09;;;16.51;10.93
64698;BME280;51124;53.394;-6.294;2024-02-04T06:44:45;101425.92;;;15.99;10.65
64698;BME280;51124;53.394;-6.294;2024-02-04T06:47:12;101424.43;;;16.21;10.50
64698;BME280;51124;53.394;-6.294;2024-02-04T06:49:39;101421.21;;;16.96;10.34
64698;BME280;51124;53.394;-6.294;2024-02-04T06:52:07;101407.23;;;16.22;10.19
64698;BME280;51124;53.394;-6.294;2024-02-04T06:54:34;101405.99;;;16.60;10.01
64698;BME280;51124;53.394;-6.294;2024-02-04T06:57:02;101411.08;;;16.15;9.96
64698;BME280;51124;53.394;-6.294;2024-02-04T06:59:29;101409.14;;;16.92;9.74
64698;BME280;51124;53.394;-6.294;2024-02-04T07:01:57;101412.11;;;15.51;9.79
64698;BME280;51124;53.394;-6.294;2024-02-04T07:04:24;101405.98;;;16.89;9.73
64698;BME280;51124;53.394;-6.294;2024-02-04T07:06:51;101406.57;;;16.86;9.64
64698;BME280;51124;53.394;-6.294;2024-02-04T07:09:19;101400.78;;;16.09;9.63
64698;BME280;51124;53.394;-6.294;2024-02-04T07:11:46;101399.71;;;16.49;9.57
64698;BME280;51124;53.394;-6.294;2024-02-04T07:14:14;101400.80;;;16.27;9.59
64698;BME280;51124;53.394;-6.294;2024-02-04T07:16:41;101400.88;;;15.88;9.44
64698;BME280;51124;53.394;-6.294;2024-02-04T07:19:09;101409.41;;;15.18;9.45
64698;BME280;51124;53.394;-6.294;2024-02-04T07:21:36;101399.34;;;16.83;9.37
64698;BME280;51124;53.394;-6.294;2024-02-04T07:24:04;101398.08;;;15.43;9.38
64698;BME280;51124;53.394;-6.294;2024-02-04T07:26:31;101387.97;;;16.61;9.35
64698;BME280;51124;53.394;-6.294;2024-02-04T07:28:59;101391.60;;;15.86;9.37
64698;BME280;51124;53.394;-6.294;2024-02-04T07:31:26;101392.03;;;17.08;9.19
64698;BME280;51124;53.394;-6.294;2024-02-04T07:33:54;101384.02;;;15.86;9.35
64698;BME280;51124;53.394;-6.294;2024-02-04T07:36:21;101383.68;;;16.28;9.11
64698;BME280;51124;53.394;-6.294;2024-02-04T07:38:48;101372.70;;;16.14;9.31
64698;BME280;51124;53.394;-6.294;2024-02-04T07:41:16;101361.69;;;16.34;9.04
64698;BME280;51124;53.394;-6.294;2024-02-04T07:43:43;101367.30;;;16.84;9.14
64698;BME280;51124;53.394;-6.294;2024-02-04T07:46:11;101362.06;;;17.71;8.91
64698;BME280;51124;53.394;-6.294;2024-02-04T07:48:38;101362.02;;;15.92;9.18
64698;BME280;51124;53.394;-6.294;2024-02-04T07:51:06;101359.68;;;16.07;9.22
64698;BME280;51124;53.394;-6.294;2024-02-04T07:53:33;101360.20;;;16.16;9.07
64698;BME280;51124;53.394;-6.294;2024-02-04T07:56:01;101361.96;;;17.07;9.00
64698;BME280;51124;53.394;-6.294;2024-02-04T07:58:28;101348.62;;;16.54;9.09
64698;BME280;51124;53.394;-6.294;2024-02-04T08:00:56;101355.50;;;16.44;9.07
64698;BME280;51124;53.394;-6.294;2024-02-04T08:03:23;101359.13;;;16.60;8.96
64698;BME280;51124;53.394;-6.294;2024-02-04T08:05:50;101352.19;;;16.50;8.98
64698;BME280;51124;53.394;-6.294;2024-02-04T08:08:18;101351.79;;;17.28;9.01
64698;BME280;51124;53.394;-6.294;2024-02-04T08:10:45;101353.25;;;17.02;8.99
64698;BME280;51124;53.394;-6.294;2024-02-04T08:13:12;101341.98;;;17.15;8.87
64698;BME280;51124;53.394;-6.294;2024-02-04T08:15:40;101330.05;;;18.33;8.73
64698;BME280;51124;53.394;-6.294;2024-02-04T08:18:07;101328.45;;;16.99;9.04
64698;BME280;51124;53.394;-6.294;2024-02-04T08:20:35;101320.03;;;17.37;8.98
64698;BME280;51124;53.394;-6.294;2024-02-04T08:23:02;101328.90;;;17.20;9.04
64698;BME280;51124;53.394;-6.294;2024-02-04T08:25:30;101323.03;;;16.58;8.96
64698;BME280;51124;53.394;-6.294;2024-02-04T08:27:58;101316.89;;;17.64;9.01
64698;BME280;51124;53.394;-6.294;2024-02-04T08:30:25;101307.71;;;17.44;8.80
64698;BME280;51124;53.394;-6.294;2024-02-04T08:32:53;101311.74;;;16.91;8.96
64698;BME280;51124;53.394;-6.294;2024-02-04T08:35:20;101310.65;;;16.89;8.90
64698;BME280;51124;53.394;-6.294;2024-02-04T08:37:47;101297.90;;;17.86;8.66
64698;BME280;51124;53.394;-6.294;2024-02-04T08:40:15;101295.47;;;17.61;8.77
64698;BME280;51124;53.394;-6.294;2024-02-04T08:42:42;101291.89;;;17.99;8.71
64698;BME280;51124;53.394;-6.294;2024-02-04T08:45:10;101289.00;;;18.58;8.89
64698;BME280;51124;53.394;-6.294;2024-02-04T08:47:37;101296.43;;;19.54;9.28
64698;BME280;51124;53.394;-6.294;2024-02-04T08:50:06;101291.97;;;19.29;9.75
64698;BME280;51124;53.394;-6.294;2024-02-04T08:52:33;101293.29;;;18.73;9.79
64698;BME280;51124;53.394;-6.294;2024-02-04T08:55:01;101301.84;;;17.18;9.82
64698;BME280;51124;53.394;-6.294;2024-02-04T08:57:28;101295.60;;;19.92;9.81
64698;BME280;51124;53.394;-6.294;2024-02-04T08:59:56;101295.36;;;20.32;10.15
64698;BME280;51124;53.394;-6.294;2024-02-04T09:02:24;101287.23;;;20.71;10.38
64698;BME280;51124;53.394;-6.294;2024-02-04T09:04:51;101288.28;;;19.68;10.63
64698;BME280;51124;53.394;-6.294;2024-02-04T09:07:19;101289.36;;;19.42;10.70
64698;BME280;51124;53.394;-6.294;2024-02-04T09:09:47;101279.84;;;19.52;10.94
64698;BME280;51124;53.394;-6.294;2024-02-04T09:12:15;101291.65;;;20.18;10.86
64698;BME280;51124;53.394;-6.294;2024-02-04T09:14:43;101279.63;;;20.03;10.86
64698;BME280;51124;53.394;-6.294;2024-02-04T09:17:10;101281.21;;;19.62;10.80
64698;BME280;51124;53.394;-6.294;2024-02-04T09:19:37;101279.28;;;19.17;11.02
64698;BME280;51124;53.394;-6.294;2024-02-04T09:22:05;101274.21;;;19.53;11.23
64698;BME280;51124;53.394;-6.294;2024-02-04T09:24:33;101272.34;;;19.42;11.15
64698;BME280;51124;53.394;-6.294;2024-02-04T09:27:01;101270.59;;;20.26;10.92
64698;BME280;51124;53.394;-6.294;2024-02-04T09:29:29;101269.19;;;19.41;11.00
64698;BME280;51124;53.394;-6.294;2024-02-04T09:31:56;101271.26;;;19.34;11.00
64698;BME280;51124;53.394;-6.294;2024-02-04T09:34:25;101273.02;;;19.51;11.22
64698;BME280;51124;53.394;-6.294;2024-02-04T09:36:52;101265.72;;;18.72;11.25
64698;BME280;51124;53.394;-6.294;2024-02-04T09:39:20;101251.29;;;19.17;11.07
64698;BME280;51124;53.394;-6.294;2024-02-04T09:41:47;101259.36;;;19.96;10.98
64698;BME280;51124;53.394;-6.294;2024-02-04T09:44:15;101262.26;;;19.99;11.07
64698;BME280;51124;53.394;-6.294;2024-02-04T09:46:43;101268.25;;;19.44;11.08
64698;BME280;51124;53.394;-6.294;2024-02-04T09:49:11;101258.38;;;17.21;10.97
64698;BME280;51124;53.394;-6.294;2024-02-04T09:51:40;101256.60;;;17.44;10.55
64698;BME280;51124;53.394;-6.294;2024-02-04T09:54:09;101256.53;;;18.12;10.24
64698;BME280;51124;53.394;-6.294;2024-02-04T09:56:38;101264.28;;;16.54;10.12
64698;BME280;51124;53.394;-6.294;2024-02-04T09:59:06;101260.56;;;17.89;9.93
64698;BME280;51124;53.394;-6.294;2024-02-04T10:01:34;101265.16;;;18.06;9.88
64698;BME280;51124;53.394;-6.294;2024-02-04T10:04:02;101271.58;;;17.22;9.58
64698;BME280;51124;53.394;-6.294;2024-02-04T10:06:29;101273.93;;;17.86;9.27
64698;BME280;51124;53.394;-6.294;2024-02-04T10:08:57;101272.13;;;17.66;9.22
64698;BME280;51124;53.394;-6.294;2024-02-04T10:11:24;101278.64;;;17.26;9.36
64698;BME280;51124;53.394;-6.294;2024-02-04T10:13:52;101284.68;;;17.80;9.14
64698;BME280;51124;53.394;-6.294;2024-02-04T10:16:19;101275.06;;;18.17;9.10
64698;BME280;51124;53.394;-6.294;2024-02-04T10:18:48;101267.51;;;17.71;9.16
64698;BME280;51124;53.394;-6.294;2024-02-04T10:21:17;101278.24;;;17.53;9.01
64698;BME280;51124;53.394;-6.294;2024-02-04T10:23:45;101283.23;;;17.96;8.89
64698;BME280;51124;53.394;-6.294;2024-02-04T10:26:12;101282.74;;;17.53;9.04
64698;BME280;51124;53.394;-6.294;2024-02-04T10:28:40;101298.75;;;18.41;8.86
64698;BME280;51124;53.394;-6.294;2024-02-04T10:31:08;101293.47;;;17.45;8.83
64698;BME280;51124;53.394;-6.294;2024-02-04T10:33:36;101291.65;;;19.47;9.19
64698;BME280;51124;53.394;-6.294;2024-02-04T10:36:04;101295.63;;;17.12;9.14
64698;BME280;51124;53.394;-6.294;2024-02-04T10:38:32;101291.61;;;18.15;8.77
64698;BME280;51124;53.394;-6.294;2024-02-04T10:41:02;101291.42;;;18.20;8.66
64698;BME280;51124;53.394;-6.294;2024-02-04T10:43:32;101271.47;;;17.91;8.70
64698;BME280;51124;53.394;-6.294;2024-02-04T10:46:05;101285.60;;;18.44;8.60
64698;BME280;51124;53.394;-6.294;2024-02-04T10:48:27;101282.17;;;18.56;8.53
64698;BME280;51124;53.394;-6.294;2024-02-04T10:50:57;101290.52;;;17.53;8.54
64698;BME280;51124;53.394;-6.294;2024-02-04T10:53:26;101281.92;;;18.73;8.48
64698;BME280;51124;53.394;-6.294;2024-02-04T10:55:57;101283.62;;;18.64;8.47
64698;BME280;51124;53.394;-6.294;2024-02-04T10:58:29;101284.39;;;19.50;8.40
64698;BME280;51124;53.394;-6.294;2024-02-04T11:00:57;101294.30;;;18.43;8.45
64698;BME280;51124;53.394;-6.294;2024-02-04T11:03:25;101286.20;;;18.72;8.45
64698;BME280;51124;53.394;-6.294;2024-02-04T11:05:53;101306.35;;;17.84;8.59
64698;BME280;51124;53.394;-6.294;2024-02-04T11:08:21;101304.86;;;18.29;8.58
64698;BME280;51124;53.394;-6.294;2024-02-04T11:10:48;101296.24;;;18.28;8.64
64698;BME280;51124;53.394;-6.294;2024-02-04T11:13:17;101288.41;;;18.30;8.48
64698;BME280;51124;53.394;-6.294;2024-02-04T11:15:45;101293.00;;;18.66;8.52
64698;BME280;51124;53.394;-6.294;2024-02-04T11:18:30;101300.58;;;17.71;8.47
64698;BME280;51124;53.394;-6.294;2024-02-04T11:20:56;101305.55;;;17.87;8.65
64698;BME280;51124;53.394;-6.294;2024-02-04T11:23:24;101283.19;;;18.51;8.41
64698;BME280;51124;53.394;-6.294;2024-02-04T11:25:45;101306.36;;;17.64;8.67
64698;BME280;51124;53.394;-6.294;2024-02-04T11:28:04;101304.57;;;18.66;8.60
64698;BME280;51124;53.394;-6.294;2024-02-04T11:30:34;101296.78;;;18.33;8.62
64698;BME280;51124;53.394;-6.294;2024-02-04T11:33:02;101299.26;;;17.51;8.43
64698;BME280;51124;53.394;-6.294;2024-02-04T11:35:30;101281.54;;;18.64;8.58
64698;BME280;51124;53.394;-6.294;2024-02-04T11:37:58;101294.99;;;18.42;8.49
64698;BME280;51124;53.394;-6.294;2024-02-04T11:40:33;101303.65;;;18.47;8.64
64698;BME280;51124;53.394;-6.294;2024-02-04T11:42:51;101302.71;;;17.53;8.91
64698;BME280;51124;53.394;-6.294;2024-02-04T11:45:18;101300.02;;;17.76;8.65
64698;BME280;51124;53.394;-6.294;2024-02-04T11:47:45;101286.26;;;17.48;8.62
64698;BME280;51124;53.394;-6.294;2024-02-04T11:50:13;101301.18;;;17.52;8.69
64698;BME280;51124;53.394;-6.294;2024-02-04T11:52:44;101298.71;;;18.49;8.31
64698;BME280;51124;53.394;-6.294;2024-02-04T11:55:15;101296.70;;;18.33;8.33
64698;BME280;51124;53.394;-6.294;2024-02-04T11:57:43;101296.76;;;19.88;8.91
64698;BME280;51124;53.394;-6.294;2024-02-04T12:00:11;101314.56;;;19.94;9.21
64698;BME280;51124;53.394;-6.294;2024-02-04T12:02:38;101310.95;;;19.81;9.34
64698;BME280;51124;53.394;-6.294;2024-02-04T12:05:06;101311.47;;;18.93;9.26
64698;BME280;51124;53.394;-6.294;2024-02-04T12:07:34;101314.51;;;21.38;9.28
64698;BME280;51124;53.394;-6.294;2024-02-04T12:10:02;101328.01;;;21.34;9.82
64698;BME280;51124;53.394;-6.294;2024-02-04T12:12:30;101324.89;;;20.26;10.19
64698;BME280;51124;53.394;-6.294;2024-02-04T12:14:58;101313.96;;;20.73;10.24
64698;BME280;51124;53.394;-6.294;2024-02-04T12:17:27;101303.29;;;21.09;10.32
64698;BME280;51124;53.394;-6.294;2024-02-04T12:19:55;101306.62;;;20.04;10.70
64698;BME280;51124;53.394;-6.294;2024-02-04T12:22:23;101308.41;;;20.09;10.70
64698;BME280;51124;53.394;-6.294;2024-02-04T12:24:51;101300.84;;;20.41;10.70
64698;BME280;51124;53.394;-6.294;2024-02-04T12:27:18;101298.12;;;19.84;10.66
64698;BME280;51124;53.394;-6.294;2024-02-04T12:29:46;101279.62;;;20.25;10.64
64698;BME280;51124;53.394;-6.294;2024-02-04T12:32:17;101277.27;;;20.29;10.67
64698;BME280;51124;53.394;-6.294;2024-02-04T12:34:48;101272.00;;;20.42;10.66
64698;BME280;51124;53.394;-6.294;2024-02-04T12:37:16;101281.01;;;20.11;10.68
64698;BME280;51124;53.394;-6.294;2024-02-04T12:39:44;101285.65;;;20.63;10.67
64698;BME280;51124;53.394;-6.294;2024-02-04T12:42:14;101282.70;;;20.76;10.59
64698;BME280;51124;53.394;-6.294;2024-02-04T12:44:42;101286.17;;;20.65;10.57
64698;BME280;51124;53.394;-6.294;2024-02-04T12:47:09;101290.32;;;20.10;10.47